Time;durP1;ratioP1;P1;durP2;ratioP2;P2;SDS_P1;SDS_P2;PMS_P1;PMS_P2;Temp;Humidity;BMP_temperature;BMP_pressure;BME280_temperature;BME280_humidity;BME280_pressure;Samples;Min_cycle;Max_cycle;Signal;HPM_P1;HPM_P2
2024/01/28 00:00:44;;;;;;;20.40;13.98;;;8.30;45.80;;;;;;5034203;28;20399;-65
2024/01/28 00:03:10;;;;;;;24.38;17.48;;;8.30;46.20;;;;;;5034273;28;20108;-64
2024/01/28 00:05:36;;;;;;;20.27;14.82;;;8.10;46.70;;;;;;5033183;28;20037;-62
2024/01/28 00:08:06;;;;;;;26.13;19.23;;;8.00;47.10;;;;;;5034296;28;20022;-64
2024/01/28 00:10:32;;;;;;;25.35;18.88;;;7.80;47.60;;;;;;5034308;28;20430;-64
2024/01/28 00:12:57;;;;;;;37.20;26.35;;;7.70;48.20;;;;;;5034343;28;20026;-62
2024/01/28 00:15:23;;;;;;;65.05;44.53;;;7.60;49.10;;;;;;5033889;28;20021;-68
2024/01/28 00:17:53;;;;;;;60.42;42.45;;;7.30;50.50;;;;;;5033076;28;20017;-63
2024/01/28 00:20:19;;;;;;;45.38;32.88;;;7.00;52.40;;;;;;5034050;28;20029;-64
2024/01/28 00:22:44;;;;;;;34.22;25.20;;;6.60;54.40;;;;;;5033985;28;20037;-64
2024/01/28 00:25:10;;;;;;;32.25;24.38;;;6.30;57.70;;;;;;5034184;28;20100;-67
2024/01/28 00:27:36;;;;;;;31.05;21.95;;;6.10;60.60;;;;;;5034024;28;20029;-65
2024/01/28 00:30:04;;;;;;;28.08;19.80;;;6.00;63.60;;;;;;5033789;28;20025;-63
2024/01/28 00:32:29;;;;;;;31.33;22.63;;;5.90;65.90;;;;;;5034115;28;20033;-68
2024/01/28 00:34:55;;;;;;;25.63;17.90;;;5.80;67.60;;;;;;5034103;28;20044;-66
2024/01/28 00:37:21;;;;;;;27.52;19.30;;;5.80;66.90;;;;;;5032490;28;20030;-67
2024/01/28 00:39:47;;;;;;;31.10;22.23;;;5.90;66.70;;;;;;5033631;28;20041;-66
2024/01/28 00:42:13;;;;;;;26.02;17.88;;;5.90;67.20;;;;;;5033923;28;20096;-66
2024/01/28 00:44:39;;;;;;;30.80;20.88;;;5.80;68.30;;;;;;5033450;28;20026;-67
2024/01/28 00:47:04;;;;;;;25.08;18.30;;;5.80;70.20;;;;;;5032464;28;20480;-64
2024/01/28 00:49:30;;;;;;;31.60;19.85;;;5.70;71.80;;;;;;5033766;28;20383;-65
2024/01/28 00:51:56;;;;;;;23.95;14.98;;;5.50;74.10;;;;;;5032469;28;20028;-63
2024/01/28 00:54:23;;;;;;;23.60;15.85;;;5.30;77.20;;;;;;5033569;28;20361;-65
2024/01/28 00:56:49;;;;;;;23.45;15.40;;;5.10;79.20;;;;;;5033544;28;20025;-66
2024/01/28 00:59:15;;;;;;;22.33;15.40;;;5.10;80.20;;;;;;5033403;28;20092;-65
2024/01/28 01:01:41;;;;;;;29.70;19.40;;;5.00;81.80;;;;;;5032556;28;20033;-64
2024/01/28 01:04:07;;;;;;;28.23;18.15;;;4.90;84.20;;;;;;5033334;28;20096;-64
2024/01/28 01:06:32;;;;;;;23.55;15.35;;;4.80;85.90;;;;;;5033433;28;20021;-63
2024/01/28 01:08:59;;;;;;;21.75;14.88;;;4.80;86.40;;;;;;5033025;28;20036;-65
2024/01/28 01:11:24;;;;;;;15.73;12.60;;;4.80;86.90;;;;;;5033351;28;20028;-66
2024/01/28 01:13:53;;;;;;;21.15;15.40;;;4.80;87.80;;;;;;5033289;28;20025;-65
2024/01/28 01:16:19;;;;;;;18.92;13.10;;;4.90;86.90;;;;;;5033201;28;20499;-65
2024/01/28 01:18:45;;;;;;;24.48;16.80;;;5.20;85.00;;;;;;5033390;28;20099;-64
2024/01/28 01:21:11;;;;;;;20.15;14.27;;;5.40;83.70;;;;;;5033214;28;20030;-65
2024/01/28 01:23:36;;;;;;;22.85;15.00;;;5.40;82.70;;;;;;5033103;28;20041;-65
2024/01/28 01:26:02;;;;;;;19.35;13.07;;;5.40;82.90;;;;;;5032987;28;20036;-64
2024/01/28 01:28:31;;;;;;;16.70;11.55;;;5.50;81.40;;;;;;5033198;28;20033;-66
2024/01/28 01:31:03;;;;;;;16.65;11.60;;;5.80;78.00;;;;;;5033168;28;20136;-65
2024/01/28 01:33:29;;;;;;;16.33;11.45;;;5.90;74.80;;;;;;5033318;28;20117;-63
2024/01/28 01:35:55;;;;;;;15.63;11.35;;;6.10;72.50;;;;;;5033324;28;20575;-62
2024/01/28 01:38:22;;;;;;;16.67;12.18;;;6.20;71.40;;;;;;5032996;28;20357;-67
2024/01/28 01:40:47;;;;;;;17.92;13.60;;;6.20;70.30;;;;;;5031704;28;20160;-64
2024/01/28 01:43:15;;;;;;;35.15;22.48;;;6.30;68.40;;;;;;5033042;28;20543;-65
2024/01/28 01:45:41;;;;;;;28.25;20.02;;;6.20;68.60;;;;;;5032861;28;20021;-66
2024/01/28 01:48:12;;;;;;;25.10;16.95;;;6.30;69.10;;;;;;5033148;28;20021;-67
2024/01/28 01:50:41;;;;;;;23.23;17.67;;;6.30;68.40;;;;;;5032972;28;20037;-63
2024/01/28 01:53:09;;;;;;;22.77;16.90;;;6.50;68.50;;;;;;5032860;28;20039;-66
2024/01/28 01:55:37;;;;;;;24.15;17.77;;;6.50;65.80;;;;;;5031666;28;20511;-65
2024/01/28 01:58:04;;;;;;;22.73;16.33;;;6.70;62.30;;;;;;5031688;28;20494;-64
2024/01/28 02:00:31;;;;;;;23.00;18.02;;;6.80;61.20;;;;;;5032693;28;20068;-63
2024/01/28 02:02:57;;;;;;;35.75;24.27;;;6.90;60.00;;;;;;5032931;28;20057;-63
2024/01/28 02:05:23;;;;;;;24.83;18.67;;;6.80;60.50;;;;;;5031572;28;20549;-64
2024/01/28 02:07:49;;;;;;;25.27;17.63;;;6.70;61.20;;;;;;5033060;28;20075;-63
2024/01/28 02:10:15;;;;;;;20.85;15.10;;;6.70;61.40;;;;;;5031363;28;20550;-65
2024/01/28 02:12:44;;;;;;;18.17;13.77;;;6.70;61.60;;;;;;5032831;28;20538;-63
2024/01/28 02:15:10;;;;;;;18.80;13.88;;;6.80;60.50;;;;;;5031402;28;20029;-66
2024/01/28 02:17:36;;;;;;;14.70;10.75;;;6.90;59.70;;;;;;5032800;28;20017;-67
2024/01/28 02:20:03;;;;;;;14.57;10.20;;;6.90;58.20;;;;;;5034417;28;20108;-63
2024/01/28 02:22:29;;;;;;;13.25;8.95;;;7.00;57.40;;;;;;5036311;28;20532;-64
2024/01/28 02:24:55;;;;;;;11.65;8.25;;;7.10;57.10;;;;;;5036232;28;20033;-62
2024/01/28 02:27:21;;;;;;;9.07;7.75;;;7.00;57.00;;;;;;5036326;28;20030;-66
2024/01/28 02:29:46;;;;;;;11.05;9.02;;;7.00;58.10;;;;;;5036263;28;20033;-68
2024/01/28 02:32:18;;;;;;;15.57;11.48;;;7.00;57.80;;;;;;5034941;28;20063;-66
2024/01/28 02:34:44;;;;;;;15.73;11.80;;;7.00;57.90;;;;;;5036144;28;20472;-66
2024/01/28 02:37:10;;;;;;;15.50;11.95;;;7.00;57.40;;;;;;5036109;28;20025;-64
2024/01/28 02:39:37;;;;;;;20.65;13.70;;;7.00;58.00;;;;;;5035838;28;20427;-64
2024/01/28 02:42:03;;;;;;;14.98;11.50;;;7.00;59.40;;;;;;5036001;28;20021;-65
2024/01/28 02:44:29;;;;;;;13.35;9.48;;;6.90;58.30;;;;;;5035944;28;20025;-65
2024/01/28 02:46:55;;;;;;;11.95;8.07;;;7.00;57.60;;;;;;5035761;28;20534;-66
2024/01/28 02:49:24;;;;;;;10.15;7.07;;;7.00;56.90;;;;;;5035830;28;20022;-66
2024/01/28 02:51:53;;;;;;;10.63;7.30;;;7.00;56.40;;;;;;5035771;28;20058;-65
2024/01/28 02:54:20;;;;;;;7.68;5.88;;;7.00;56.70;;;;;;5034272;28;20116;-66
2024/01/28 02:56:45;;;;;;;6.95;5.43;;;7.00;57.00;;;;;;5035753;28;20018;-64
2024/01/28 02:59:13;;;;;;;6.68;5.95;;;7.00;56.80;;;;;;5035718;28;20091;-63
2024/01/28 03:01:46;;;;;;;8.90;6.60;;;7.00;57.30;;;;;;5034287;28;20041;-64
2024/01/28 03:04:12;;;;;;;8.77;6.85;;;7.00;56.50;;;;;;5035515;28;20159;-66
2024/01/28 03:06:38;;;;;;;10.50;8.05;;;7.00;56.60;;;;;;5034325;28;20030;-65
2024/01/28 03:09:04;;;;;;;10.90;8.02;;;7.00;56.40;;;;;;5033984;28;20068;-67
2024/01/28 03:11:30;;;;;;;11.30;8.10;;;7.00;56.50;;;;;;5034226;28;20427;-65
2024/01/28 03:13:56;;;;;;;8.43;6.60;;;6.90;57.10;;;;;;5035632;28;20045;-66
2024/01/28 03:16:22;;;;;;;10.23;6.85;;;6.80;57.20;;;;;;5035182;28;20431;-62
2024/01/28 03:18:48;;;;;;;7.40;6.00;;;6.80;57.20;;;;;;5034637;28;20112;-64
2024/01/28 03:21:13;;;;;;;9.00;7.28;;;6.80;57.60;;;;;;5035266;28;20112;-65
2024/01/28 03:23:39;;;;;;;12.07;8.55;;;6.80;57.10;;;;;;5034945;28;20033;-67
2024/01/28 03:26:05;;;;;;;10.80;7.70;;;6.80;56.80;;;;;;5035063;28;20025;-66
2024/01/28 03:28:31;;;;;;;10.15;7.45;;;6.90;57.10;;;;;;5035143;28;20025;-67
2024/01/28 03:30:57;;;;;;;9.13;6.80;;;6.80;57.50;;;;;;5034786;28;20033;-65
2024/01/28 03:33:23;;;;;;;8.48;6.88;;;6.80;57.70;;;;;;5034936;28;20165;-65
2024/01/28 03:35:48;;;;;;;9.52;7.00;;;6.80;57.90;;;;;;5034979;28;20021;-64
2024/01/28 03:38:14;;;;;;;13.68;10.10;;;6.70;58.60;;;;;;5034703;28;20097;-64
2024/01/28 03:40:40;;;;;;;15.68;11.15;;;6.80;59.00;;;;;;5033527;28;20056;-66
2024/01/28 03:43:05;;;;;;;15.95;10.90;;;6.70;58.70;;;;;;5034951;28;20380;-64
2024/01/28 03:45:31;;;;;;;11.80;7.78;;;6.80;58.60;;;;;;5034842;28;20531;-64
2024/01/28 03:47:57;;;;;;;12.27;8.65;;;6.90;58.40;;;;;;5034625;28;20028;-65
2024/01/28 03:50:24;;;;;;;10.15;6.60;;;6.80;58.70;;;;;;5034745;28;20480;-66
2024/01/28 03:52:50;;;;;;;6.93;5.28;;;6.70;59.90;;;;;;5034546;28;20028;-67
2024/01/28 03:55:15;;;;;;;6.93;5.43;;;6.70;60.20;;;;;;5034566;28;20021;-64
2024/01/28 03:57:43;;;;;;;7.25;5.15;;;6.70;59.90;;;;;;5034830;28;20018;-66
2024/01/28 04:00:12;;;;;;;7.75;4.95;;;6.70;60.30;;;;;;5034378;28;20049;-64
2024/01/28 04:02:38;;;;;;;8.15;5.15;;;6.70;60.50;;;;;;5034346;28;20025;-66
2024/01/28 04:05:05;;;;;;;6.38;4.65;;;6.70;60.70;;;;;;5034274;28;20053;-62
2024/01/28 04:07:30;;;;;;;7.93;4.68;;;6.70;60.20;;;;;;5034190;28;20386;-64
2024/01/28 04:09:56;;;;;;;7.10;5.03;;;6.80;59.90;;;;;;5034227;28;20101;-67
2024/01/28 04:12:22;;;;;;;6.60;4.40;;;6.80;59.70;;;;;;5034409;28;20017;-64
2024/01/28 04:14:48;;;;;;;10.75;7.72;;;6.80;60.20;;;;;;5034109;28;20094;-63
2024/01/28 04:17:14;;;;;;;9.35;6.40;;;6.80;59.60;;;;;;5034003;28;20026;-64
2024/01/28 04:19:40;;;;;;;8.57;6.75;;;6.80;60.20;;;;;;5034033;28;20430;-65
2024/01/28 04:22:10;;;;;;;7.90;6.13;;;6.80;60.40;;;;;;5033876;28;20025;-63
2024/01/28 04:24:36;;;;;;;7.35;5.85;;;6.80;60.00;;;;;;5033987;28;20068;-65
2024/01/28 04:27:02;;;;;;;7.93;5.47;;;6.80;60.10;;;;;;5033945;28;20022;-62
2024/01/28 04:29:28;;;;;;;7.82;4.93;;;6.90;59.50;;;;;;5033958;28;20029;-63
2024/01/28 04:31:54;;;;;;;8.02;6.13;;;6.90;59.20;;;;;;5032808;28;20036;-67
2024/01/28 04:34:21;;;;;;;6.82;4.72;;;6.90;59.80;;;;;;5033894;28;20071;-65
2024/01/28 04:36:46;;;;;;;5.88;5.07;;;6.90;59.20;;;;;;5032428;28;20100;-65
2024/01/28 04:39:15;;;;;;;5.10;4.30;;;6.80;59.50;;;;;;5033897;28;20101;-65
2024/01/28 04:41:41;;;;;;;8.13;5.32;;;6.80;60.00;;;;;;5033376;28;20487;-62
2024/01/28 04:44:07;;;;;;;5.47;4.72;;;6.90;59.60;;;;;;5033493;28;20029;-63
2024/01/28 04:46:33;;;;;;;7.13;5.38;;;6.90;60.00;;;;;;5033706;28;20108;-67
2024/01/28 04:49:02;;;;;;;7.97;5.57;;;6.80;60.60;;;;;;5033358;28;20028;-65
2024/01/28 04:51:30;;;;;;;22.75;15.77;;;6.80;60.20;;;;;;5033619;28;20075;-61
2024/01/28 04:53:56;;;;;;;11.93;8.50;;;6.80;61.90;;;;;;5032329;28;20057;-63
2024/01/28 04:56:22;;;;;;;9.05;6.75;;;6.70;60.90;;;;;;5032151;28;20032;-63
2024/01/28 04:58:48;;;;;;;7.22;5.80;;;6.80;60.30;;;;;;5033485;28;20025;-66
2024/01/28 05:01:14;;;;;;;6.18;4.70;;;6.90;60.20;;;;;;5032318;28;20033;-65
2024/01/28 05:03:39;;;;;;;5.45;4.20;;;6.90;60.60;;;;;;5032954;28;20041;-65
2024/01/28 05:06:05;;;;;;;4.40;3.53;;;6.90;60.10;;;;;;5033519;28;20507;-65
2024/01/28 05:08:31;;;;;;;4.45;3.67;;;6.90;59.30;;;;;;5033637;28;20090;-66
2024/01/28 05:10:57;;;;;;;4.25;3.17;;;7.00;58.90;;;;;;5033312;28;20034;-63
2024/01/28 05:13:23;;;;;;;6.28;4.45;;;7.00;58.90;;;;;;5032104;28;20021;-65
2024/01/28 05:15:50;;;;;;;5.47;3.50;;;6.90;59.80;;;;;;5033230;28;20052;-64
2024/01/28 05:18:16;;;;;;;5.07;3.13;;;6.80;60.80;;;;;;5033123;28;20502;-65
2024/01/28 05:20:43;;;;;;;3.58;2.70;;;6.90;60.70;;;;;;5033207;28;20076;-66
2024/01/28 05:23:09;;;;;;;4.05;3.00;;;6.90;60.70;;;;;;5033236;28;20018;-65
2024/01/28 05:25:35;;;;;;;3.90;3.30;;;7.00;61.40;;;;;;5033143;28;20018;-65
2024/01/28 05:28:01;;;;;;;5.85;4.03;;;6.90;60.80;;;;;;5033139;28;20021;-66
2024/01/28 05:30:27;;;;;;;6.05;4.43;;;7.00;60.70;;;;;;5033138;28;20483;-63
2024/01/28 05:32:53;;;;;;;6.80;4.38;;;7.00;60.70;;;;;;5031761;28;20117;-65
2024/01/28 05:35:19;;;;;;;6.63;3.95;;;7.10;59.20;;;;;;5033035;28;20049;-63
2024/01/28 05:37:44;;;;;;;5.47;3.85;;;7.10;59.90;;;;;;5033177;28;20022;-65
2024/01/28 05:40:11;;;;;;;5.78;3.88;;;7.10;59.20;;;;;;5033161;28;20466;-65
2024/01/28 05:42:37;;;;;;;3.92;2.90;;;7.10;59.90;;;;;;5032975;28;20022;-65
2024/01/28 05:45:03;;;;;;;4.00;3.60;;;7.00;59.60;;;;;;5033058;28;20499;-62
2024/01/28 05:47:29;;;;;;;5.45;4.20;;;7.00;59.00;;;;;;5033002;28;20057;-62
2024/01/28 05:49:55;;;;;;;6.85;4.30;;;7.00;59.50;;;;;;5032979;28;20025;-64
2024/01/28 05:52:21;;;;;;;6.05;4.72;;;7.00;59.50;;;;;;5031742;28;20048;-67
2024/01/28 05:54:47;;;;;;;5.47;4.45;;;7.00;60.20;;;;;;5034502;28;20089;-66
2024/01/28 05:57:12;;;;;;;5.30;4.45;;;7.00;59.80;;;;;;5035517;28;20028;-63
2024/01/28 05:59:38;;;;;;;7.07;5.65;;;7.00;60.40;;;;;;5036848;28;20024;-64
2024/01/28 06:02:04;;;;;;;10.15;7.53;;;7.00;61.00;;;;;;5035373;28;20487;-65
2024/01/28 06:04:30;;;;;;;9.88;8.02;;;7.00;60.40;;;;;;5036573;28;20045;-66
2024/01/28 06:06:56;;;;;;;13.55;9.98;;;7.00;60.60;;;;;;5036916;28;20033;-65
2024/01/28 06:09:22;;;;;;;12.07;8.70;;;7.00;61.20;;;;;;5036569;28;20426;-64
2024/01/28 06:11:48;;;;;;;18.00;13.80;;;6.80;61.90;;;;;;5036622;28;20025;-66
2024/01/28 06:14:14;;;;;;;15.82;11.45;;;6.80;61.90;;;;;;5036334;28;20075;-63
2024/01/28 06:16:40;;;;;;;12.65;9.88;;;6.80;62.80;;;;;;5036394;28;20392;-65
2024/01/28 06:19:05;;;;;;;12.73;9.77;;;6.80;62.70;;;;;;5035170;28;20025;-63
2024/01/28 06:21:31;;;;;;;11.07;8.35;;;6.80;62.40;;;;;;5036216;28;20036;-64
2024/01/28 06:23:57;;;;;;;9.25;7.13;;;6.80;62.90;;;;;;5035050;28;20494;-65
2024/01/28 06:26:22;;;;;;;11.00;7.85;;;6.90;61.60;;;;;;5036357;28;20365;-65
2024/01/28 06:28:49;;;;;;;7.40;5.75;;;6.90;61.20;;;;;;5036048;28;20022;-64
2024/01/28 06:31:15;;;;;;;7.15;4.65;;;7.00;60.10;;;;;;5036090;28;20096;-67
2024/01/28 06:33:41;;;;;;;4.80;4.03;;;7.00;59.70;;;;;;5036135;28;20490;-62
2024/01/28 06:36:07;;;;;;;5.28;3.45;;;7.00;60.10;;;;;;5035969;28;20022;-64
2024/01/28 06:38:33;;;;;;;5.13;3.42;;;7.00;59.30;;;;;;5036120;28;20155;-62
2024/01/28 06:40:59;;;;;;;3.42;2.67;;;7.10;59.70;;;;;;5035928;28;20167;-67
2024/01/28 06:43:25;;;;;;;3.90;2.50;;;7.00;59.40;;;;;;5035997;28;20032;-63
2024/01/28 06:45:54;;;;;;;4.28;3.00;;;7.00;60.40;;;;;;5034398;28;20022;-64
2024/01/28 06:48:21;;;;;;;2.95;2.55;;;7.00;61.00;;;;;;5035903;28;20472;-62
2024/01/28 06:50:48;;;;;;;3.90;2.90;;;7.00;60.00;;;;;;5035817;28;20033;-62
2024/01/28 06:53:13;;;;;;;3.50;3.03;;;7.10;59.00;;;;;;5035719;28;20040;-66
2024/01/28 06:55:39;;;;;;;4.90;3.65;;;7.20;59.20;;;;;;5034868;28;20464;-64
2024/01/28 06:58:05;;;;;;;4.95;4.10;;;7.20;59.20;;;;;;5035730;28;20053;-63
2024/01/28 07:00:30;;;;;;;5.28;3.70;;;7.20;60.10;;;;;;5035324;28;20033;-65
2024/01/28 07:02:56;;;;;;;5.80;4.20;;;7.20;59.50;;;;;;5035595;28;20026;-65
2024/01/28 07:05:22;;;;;;;9.63;6.68;;;7.20;58.90;;;;;;5034877;28;20526;-65
2024/01/28 07:07:48;;;;;;;7.20;5.90;;;7.20;59.00;;;;;;5035405;28;20104;-63
2024/01/28 07:10:15;;;;;;;6.30;5.40;;;7.20;59.70;;;;;;5035380;28;20024;-64
2024/01/28 07:12:42;;;;;;;8.38;6.85;;;7.30;60.20;;;;;;5035408;28;20477;-64
2024/01/28 07:15:08;;;;;;;10.75;6.88;;;7.50;59.20;;;;;;5033942;28;20021;-65
2024/01/28 07:17:35;;;;;;;9.00;7.20;;;7.50;58.80;;;;;;5035384;28;20113;-63
2024/01/28 07:20:00;;;;;;;8.32;6.85;;;7.40;58.80;;;;;;5035313;28;20116;-66
2024/01/28 07:22:26;;;;;;;10.50;7.63;;;7.40;58.00;;;;;;5035107;28;20068;-65
2024/01/28 07:24:52;;;;;;;9.23;6.47;;;7.50;59.50;;;;;;5035325;28;20065;-65
2024/01/28 07:27:17;;;;;;;7.22;5.20;;;7.50;57.80;;;;;;5035194;28;20022;-66
2024/01/28 07:29:43;;;;;;;6.65;4.82;;;7.50;59.30;;;;;;5034854;28;20024;-66
2024/01/28 07:32:13;;;;;;;6.18;4.15;;;7.30;58.10;;;;;;5034933;28;20033;-64
2024/01/28 07:34:42;;;;;;;6.90;3.70;;;7.20;59.00;;;;;;5035168;28;20029;-64
2024/01/28 07:37:08;;;;;;;5.43;3.58;;;7.20;58.90;;;;;;5034881;28;20021;-65
2024/01/28 07:39:34;;;;;;;5.53;3.55;;;7.20;58.90;;;;;;5035364;28;20446;-63
2024/01/28 07:41:59;;;;;;;3.28;2.80;;;7.30;58.20;;;;;;5034783;28;20022;-65
2024/01/28 07:44:26;;;;;;;3.83;2.97;;;7.20;58.30;;;;;;5034676;28;20024;-63
2024/01/28 07:46:52;;;;;;;7.32;5.57;;;7.20;58.10;;;;;;5034698;28;20029;-64
2024/01/28 07:49:19;;;;;;;6.70;5.20;;;7.30;57.60;;;;;;5033708;28;20111;-64
2024/01/28 07:51:45;;;;;;;5.95;4.90;;;7.40;57.10;;;;;;5034766;28;20021;-66
2024/01/28 07:54:11;;;;;;;8.32;4.95;;;7.50;56.90;;;;;;5033308;28;20036;-64
2024/01/28 07:56:37;;;;;;;6.13;5.13;;;7.40;57.60;;;;;;5034587;28;20052;-65
2024/01/28 07:59:03;;;;;;;9.57;7.63;;;7.40;57.40;;;;;;5034436;28;20026;-67
2024/01/28 08:01:30;;;;;;;7.70;6.40;;;7.40;57.70;;;;;;5034406;28;20033;-65
2024/01/28 08:03:56;;;;;;;12.23;7.15;;;7.50;57.30;;;;;;5034354;28;20045;-62
2024/01/28 08:06:22;;;;;;;11.25;7.70;;;7.50;56.30;;;;;;5034435;28;20030;-67
2024/01/28 08:08:48;;;;;;;7.88;6.22;;;7.60;56.30;;;;;;5034297;28;20112;-63
2024/01/28 08:11:14;;;;;;;6.63;4.30;;;7.60;56.60;;;;;;5033216;28;20116;-64
2024/01/28 08:13:41;;;;;;;6.13;3.40;;;7.50;56.50;;;;;;5034064;28;20053;-65
2024/01/28 08:16:07;;;;;;;6.00;3.25;;;7.50;57.40;;;;;;5034108;28;20028;-65
2024/01/28 08:18:33;;;;;;;4.00;2.67;;;7.40;57.00;;;;;;5033335;28;20128;-64
2024/01/28 08:20:58;;;;;;;6.65;2.85;;;7.40;56.60;;;;;;5034109;28;20025;-65
2024/01/28 08:23:26;;;;;;;3.20;2.65;;;7.50;57.70;;;;;;5034133;28;20029;-63
2024/01/28 08:25:54;;;;;;;2.80;2.30;;;7.70;57.40;;;;;;5034001;28;20029;-67
2024/01/28 08:28:21;;;;;;;4.18;2.75;;;8.00;55.00;;;;;;5033726;28;20104;-65
2024/01/28 08:30:47;;;;;;;4.10;2.47;;;8.00;55.60;;;;;;5033934;28;20112;-66
2024/01/28 08:33:13;;;;;;;4.10;1.92;;;8.00;54.20;;;;;;5032835;28;20045;-64
2024/01/28 08:35:39;;;;;;;3.88;3.20;;;8.30;53.40;;;;;;5032602;28;20483;-63
2024/01/28 08:38:05;;;;;;;3.75;2.60;;;8.90;52.20;;;;;;5032630;28;20017;-65
2024/01/28 08:40:31;;;;;;;3.00;2.40;;;9.70;51.30;;;;;;5033456;28;20025;-66
2024/01/28 08:42:57;;;;;;;5.63;2.83;;;10.80;48.50;;;;;;5033823;28;20029;-65
2024/01/28 08:45:23;;;;;;;5.65;3.50;;;12.40;44.40;;;;;;5033728;28;20472;-67
2024/01/28 08:47:49;;;;;;;3.72;3.20;;;13.20;43.30;;;;;;5033670;28;20028;-68
2024/01/28 08:50:15;;;;;;;4.13;3.50;;;15.00;40.80;;;;;;5033660;28;20391;-63
2024/01/28 08:52:42;;;;;;;4.65;3.40;;;17.00;35.60;;;;;;5033641;28;20025;-64
2024/01/28 08:55:09;;;;;;;6.07;3.78;;;17.90;33.20;;;;;;5033457;28;20380;-67
2024/01/28 08:57:35;;;;;;;3.40;3.10;;;18.30;31.90;;;;;;5032206;28;20075;-62
2024/01/28 09:00:01;;;;;;;4.47;3.20;;;18.80;31.00;;;;;;5033510;28;20029;-65
2024/01/28 09:02:27;;;;;;;3.83;2.95;;;18.90;30.70;;;;;;5033404;28;20032;-64
2024/01/28 09:04:52;;;;;;;3.25;2.92;;;18.80;30.50;;;;;;5032052;28;20124;-67
2024/01/28 09:07:18;;;;;;;3.70;3.05;;;19.20;31.00;;;;;;5033392;28;20030;-63
2024/01/28 09:09:44;;;;;;;3.92;3.08;;;19.00;30.20;;;;;;5033344;28;20097;-68
2024/01/28 09:12:10;;;;;;;3.75;2.65;;;18.90;30.40;;;;;;5031926;28;20373;-66
2024/01/28 09:14:36;;;;;;;5.25;4.30;;;18.90;30.60;;;;;;5033318;28;20465;-64
2024/01/28 09:17:02;;;;;;;3.70;2.67;;;18.40;30.90;;;;;;5033292;28;20029;-67
2024/01/28 09:19:28;;;;;;;4.65;2.17;;;18.10;30.40;;;;;;5033243;28;20022;-65
2024/01/28 09:21:54;;;;;;;2.22;1.90;;;17.90;30.90;;;;;;5033263;28;20030;-64
2024/01/28 09:24:20;;;;;;;3.47;2.00;;;17.80;32.80;;;;;;5033310;28;20053;-64
2024/01/28 09:26:46;;;;;;;4.75;3.40;;;17.50;31.50;;;;;;5033086;28;20491;-65
2024/01/28 09:29:12;;;;;;;3.25;2.60;;;17.50;30.90;;;;;;5035354;28;20026;-64
2024/01/28 09:31:38;;;;;;;3.42;2.55;;;17.20;31.10;;;;;;5037406;28;20060;-64
2024/01/28 09:34:04;;;;;;;2.53;2.17;;;17.10;33.40;;;;;;5037148;28;20073;-64
2024/01/28 09:36:30;;;;;;;2.70;1.80;;;17.00;32.60;;;;;;5037371;28;20026;-63
2024/01/28 09:38:55;;;;;;;3.38;1.92;;;16.80;31.80;;;;;;5037230;28;20021;-67
2024/01/28 09:41:42;;;;;;;2.60;1.73;;;16.70;34.10;;;;;;5035653;28;20395;-66
2024/01/28 09:44:08;;;;;;;2.33;1.98;;;16.90;32.50;;;;;;5037227;28;20026;-64
2024/01/28 09:46:35;;;;;;;2.78;2.10;;;17.00;32.30;;;;;;5037127;28;20413;-64
2024/01/28 09:49:01;;;;;;;3.22;2.05;;;17.00;31.70;;;;;;5037374;28;20022;-66
2024/01/28 09:51:27;;;;;;;2.85;2.58;;;16.60;32.60;;;;;;5037060;28;20494;-68
2024/01/28 09:53:53;;;;;;;2.78;2.35;;;16.40;32.60;;;;;;5036794;28;20020;-63
2024/01/28 09:56:19;;;;;;;2.55;1.65;;;16.10;31.20;;;;;;5036712;28;20026;-63
2024/01/28 09:58:44;;;;;;;2.03;1.50;;;15.50;32.40;;;;;;5036908;28;20017;-62
2024/01/28 10:01:11;;;;;;;2.63;2.20;;;15.30;33.30;;;;;;5035367;28;20021;-67
2024/01/28 10:03:37;;;;;;;2.83;2.08;;;14.90;34.40;;;;;;5036489;28;20115;-67
2024/01/28 10:06:04;;;;;;;2.90;1.98;;;14.50;34.70;;;;;;5035591;28;20467;-63
2024/01/28 10:08:31;;;;;;;2.92;1.88;;;14.50;35.50;;;;;;5036463;28;20017;-64
2024/01/28 10:10:58;;;;;;;2.90;2.10;;;14.70;35.80;;;;;;5036595;28;20052;-66
2024/01/28 10:13:26;;;;;;;3.75;2.08;;;15.00;36.30;;;;;;5036532;28;20018;-67
2024/01/28 10:15:56;;;;;;;2.88;2.55;;;14.60;34.60;;;;;;5036411;28;20395;-63
2024/01/28 10:18:25;;;;;;;3.05;2.05;;;14.10;34.90;;;;;;5036293;28;20071;-68
2024/01/28 10:20:52;;;;;;;3.28;2.38;;;13.60;35.00;;;;;;5036234;28;20048;-64
2024/01/28 10:23:17;;;;;;;2.78;2.33;;;13.40;36.10;;;;;;5034950;28;20025;-67
2024/01/28 10:25:47;;;;;;;4.03;3.05;;;13.60;37.40;;;;;;5036205;28;20017;-64
2024/01/28 10:28:13;;;;;;;3.20;2.20;;;13.90;37.30;;;;;;5036219;28;20094;-64
2024/01/28 10:30:39;;;;;;;4.90;3.30;;;14.50;36.40;;;;;;5036187;28;20108;-64
2024/01/28 10:33:07;;;;;;;4.13;2.75;;;14.90;37.30;;;;;;5036110;28;20026;-68
2024/01/28 10:35:32;;;;;;;4.57;2.50;;;15.40;34.30;;;;;;5036172;28;20018;-66
2024/01/28 10:37:59;;;;;;;4.50;3.47;;;15.60;33.10;;;;;;5035954;28;20022;-66
2024/01/28 10:40:35;;;;;;;3.40;2.30;;;16.00;34.20;;;;;;5033686;28;20029;-64
2024/01/28 10:43:02;;;;;;;4.70;2.17;;;15.90;32.70;;;;;;5036020;28;20018;-64
2024/01/28 10:45:29;;;;;;;3.97;2.50;;;16.00;32.80;;;;;;5035872;28;20111;-65
2024/01/28 10:47:56;;;;;;;3.50;2.45;;;15.90;33.30;;;;;;5035781;28;20017;-67
2024/01/28 10:50:28;;;;;;;2.63;2.20;;;15.90;33.70;;;;;;5035894;28;20021;-63
2024/01/28 10:52:56;;;;;;;3.97;2.78;;;16.30;35.30;;;;;;5035557;28;20022;-63
2024/01/28 10:55:22;;;;;;;3.92;2.30;;;16.40;32.20;;;;;;5035864;28;20068;-65
2024/01/28 10:57:48;;;;;;;4.28;1.83;;;16.30;32.20;;;;;;5035713;28;20013;-63
2024/01/28 11:00:16;;;;;;;2.47;2.22;;;16.20;32.50;;;;;;5035606;28;20029;-68
2024/01/28 11:02:42;;;;;;;4.53;2.58;;;15.90;31.20;;;;;;5035695;28;20032;-63
2024/01/28 11:05:09;;;;;;;3.17;1.92;;;15.80;31.90;;;;;;5035439;28;20404;-65
2024/01/28 11:07:36;;;;;;;4.35;2.70;;;15.40;33.40;;;;;;5035311;28;20369;-66
2024/01/28 11:10:05;;;;;;;7.90;2.10;;;15.00;33.40;;;;;;5035456;28;20022;-66
2024/01/28 11:12:32;;;;;;;6.13;2.88;;;14.40;34.50;;;;;;5035470;28;20029;-64
2024/01/28 11:14:59;;;;;;;3.53;2.58;;;14.00;34.50;;;;;;5034033;28;20032;-65
2024/01/28 11:17:34;;;;;;;3.83;3.20;;;13.90;34.90;;;;;;5035245;28;20163;-67
2024/01/28 11:20:07;;;;;;;4.75;3.05;;;13.80;34.90;;;;;;5035493;28;20086;-67
2024/01/28 11:22:58;;;;;;;4.22;2.50;;;13.70;35.40;;;;;;5033816;28;20022;-65
2024/01/28 11:25:26;;;;;;;5.13;4.38;;;13.60;36.50;;;;;;5035301;28;20057;-65
2024/01/28 11:27:58;;;;;;;5.82;4.20;;;13.50;36.00;;;;;;5035419;28;20383;-65
2024/01/28 11:30:25;;;;;;;7.18;3.42;;;13.40;36.50;;;;;;5035179;28;20482;-66
2024/01/28 11:32:54;;;;;;;3.10;2.70;;;13.20;36.30;;;;;;5035077;28;20464;-64
2024/01/28 11:35:20;;;;;;;6.05;3.80;;;12.90;37.40;;;;;;5034917;28;20155;-65
2024/01/28 11:37:58;;;;;;;3.88;3.28;;;13.00;37.00;;;;;;5035139;28;20022;-67
2024/01/28 11:40:29;;;;;;;3.35;2.95;;;13.30;38.50;;;;;;5034674;28;20025;-66
2024/01/28 11:42:55;;;;;;;4.97;3.72;;;13.20;36.00;;;;;;5035019;28;20029;-63
2024/01/28 11:45:22;;;;;;;4.20;3.15;;;13.20;36.70;;;;;;5035186;28;20385;-66
2024/01/28 11:47:48;;;;;;;4.55;3.53;;;13.20;37.70;;;;;;5033428;28;20055;-67
2024/01/28 11:50:15;;;;;;;4.15;2.58;;;12.80;37.30;;;;;;5034700;28;20032;-66
2024/01/28 11:52:40;;;;;;;2.70;2.22;;;13.10;39.60;;;;;;5034627;28;20032;-64
2024/01/28 11:55:14;;;;;;;3.42;2.75;;;13.30;37.90;;;;;;5034621;28;20033;-66
2024/01/28 11:57:48;;;;;;;3.85;2.90;;;13.30;37.00;;;;;;5034694;28;20030;-64
2024/01/28 12:00:15;;;;;;;3.95;2.58;;;13.20;36.70;;;;;;5034503;28;20042;-64
2024/01/28 12:02:42;;;;;;;3.67;1.83;;;13.10;36.50;;;;;;5034682;28;20072;-64
2024/01/28 12:05:08;;;;;;;6.35;3.38;;;12.50;37.60;;;;;;5034047;28;20508;-67
2024/01/28 12:07:36;;;;;;;5.63;2.90;;;12.50;37.80;;;;;;5034482;28;20071;-67
2024/01/28 12:10:05;;;;;;;5.72;3.05;;;12.60;38.50;;;;;;5034979;28;20345;-67
2024/01/28 12:12:34;;;;;;;3.38;2.55;;;12.90;38.40;;;;;;5033110;28;20032;-66
2024/01/28 12:15:03;;;;;;;4.40;2.95;;;12.90;37.10;;;;;;5034169;28;20018;-65
2024/01/28 12:17:36;;;;;;;4.07;3.00;;;13.00;36.90;;;;;;5034280;28;20104;-63
2024/01/28 12:20:04;;;;;;;4.47;3.00;;;12.70;37.20;;;;;;5032837;28;20071;-64
2024/01/28 12:22:39;;;;;;;4.07;2.83;;;12.60;37.20;;;;;;5034018;28;20025;-65
2024/01/28 12:25:13;;;;;;;3.97;3.28;;;12.80;37.90;;;;;;5034181;28;20096;-64
2024/01/28 12:27:40;;;;;;;4.15;3.03;;;13.40;37.10;;;;;;5033983;28;20040;-65
2024/01/28 12:30:09;;;;;;;3.63;2.63;;;13.50;36.60;;;;;;5034147;28;20025;-65
2024/01/28 12:32:37;;;;;;;3.63;2.75;;;13.80;36.70;;;;;;5034038;28;20377;-63
2024/01/28 12:35:06;;;;;;;3.65;2.40;;;13.90;35.00;;;;;;5033681;28;20021;-64
2024/01/28 12:37:33;;;;;;;3.75;2.30;;;13.60;35.60;;;;;;5033860;28;20495;-66
2024/01/28 12:39:59;;;;;;;2.45;1.95;;;13.60;36.20;;;;;;5033864;28;20021;-64
2024/01/28 12:42:25;;;;;;;4.20;2.50;;;13.60;36.60;;;;;;5033893;28;20025;-67
2024/01/28 12:44:51;;;;;;;2.80;1.98;;;13.80;35.80;;;;;;5033736;28;20022;-65